Time;durP1;ratioP1;P1;durP2;ratioP2;P2;SDS_P1;SDS_P2;PMS_P1;PMS_P2;Temp;Humidity;BMP_temperature;BMP_pressure;BME280_temperature;BME280_humidity;BME280_pressure;Samples;Min_cycle;Max_cycle;Signal;HPM_P1;HPM_P2
2022/10/01 00:02:24;;;;;;;;;2.67;2.67;;;;;14.19;100.00;100029.81;4895709;28;44762;-84
2022/10/01 00:04:50;;;;;;;;;4.33;3.00;;;;;14.18;100.00;100022.72;4896769;28;45396;-84
2022/10/01 00:07:16;;;;;;;;;2.00;2.00;;;;;14.18;100.00;100000.44;4892042;29;44845;-85
2022/10/01 00:09:41;;;;;;;;;3.00;3.00;;;;;14.14;100.00;99994.25;4875366;28;47087;-84
2022/10/01 00:12:07;;;;;;;;;2.33;2.33;;;;;14.19;100.00;100004.88;4894045;28;45594;-84
2022/10/01 00:14:32;;;;;;;;;3.00;3.00;;;;;14.21;100.00;99995.03;4876953;29;45423;-84
2022/10/01 00:16:58;;;;;;;;;1.67;1.67;;;;;14.25;100.00;100002.13;4891648;28;45505;-84
2022/10/01 00:19:23;;;;;;;;;3.00;3.00;;;;;14.28;100.00;99990.50;4893534;28;45020;-84
2022/10/01 00:21:48;;;;;;;;;4.00;3.00;;;;;14.31;100.00;99990.47;4893929;28;44687;-84
2022/10/01 00:24:14;;;;;;;;;4.67;3.33;;;;;14.31;100.00;99964.59;4893001;28;45407;-84
2022/10/01 00:26:40;;;;;;;;;4.33;3.67;;;;;14.27;100.00;99972.69;4881648;28;45524;-84
2022/10/01 00:29:12;;;;;;;;;3.67;3.67;;;;;14.27;100.00;99973.56;4896854;28;47802;-83
2022/10/01 00:31:38;;;;;;;;;3.00;3.00;;;;;14.27;100.00;99960.19;4879624;28;45409;-84
2022/10/01 00:34:05;;;;;;;;;3.33;3.33;;;;;14.23;100.00;99976.31;4895801;28;45367;-84
2022/10/01 00:36:32;;;;;;;;;2.00;2.00;;;;;14.25;100.00;99971.84;4881051;29;45444;-83
2022/10/01 00:38:59;;;;;;;;;4.00;3.00;;;;;14.25;100.00;99953.13;4879003;28;46884;-83
2022/10/01 00:41:26;;;;;;;;;3.00;3.00;;;;;14.23;100.00;99973.63;4873531;29;45401;-83
2022/10/01 00:43:57;;;;;;;;;1.67;1.67;;;;;14.24;100.00;99989.69;4887847;29;44793;-83
2022/10/01 00:46:56;;;;;;;;;3.33;3.33;;;;;14.20;100.00;99978.13;4871830;29;45407;-83
2022/10/01 00:49:26;;;;;;;;;3.00;3.00;;;;;14.08;100.00;99951.53;4870294;29;47608;-83
2022/10/01 00:51:58;;;;;;;;;1.67;1.67;;;;;14.13;100.00;99967.53;4879142;29;45409;-82
2022/10/01 00:54:48;;;;;;;;;2.00;2.00;;;;;14.07;100.00;99970.28;4854100;29;44931;-83
2022/10/01 00:57:17;;;;;;;;;2.00;2.00;;;;;14.02;100.00;99965.00;4882254;29;45521;-84
2022/10/01 00:59:43;;;;;;;;;3.00;3.00;;;;;13.94;100.00;99975.78;4870101;29;48425;-84
2022/10/01 01:02:10;;;;;;;;;3.00;3.00;;;;;13.84;100.00;99971.44;4871723;29;45408;-83
2022/10/01 01:04:35;;;;;;;;;3.00;3.00;;;;;13.82;100.00;99969.69;4870926;29;45371;-83
2022/10/01 01:07:03;;;;;;;;;2.00;2.00;;;;;13.66;100.00;99969.88;4883073;29;45418;-83
2022/10/01 01:09:45;;;;;;;;;2.00;2.00;;;;;13.74;100.00;99984.03;4853088;29;47109;-84
2022/10/01 01:16:02;;;;;;;;;3.00;2.33;;;;;13.65;100.00;99978.75;4874767;28;45493;-84
2022/10/01 01:18:35;;;;;;;;;3.00;3.00;;;;;13.71;100.00;99989.38;4859126;28;45266;-83
2022/10/01 01:21:07;;;;;;;;;5.67;4.00;;;;;13.74;100.00;99988.50;4868622;28;46929;-84
2022/10/01 01:23:58;;;;;;;;;4.00;2.00;;;;;13.73;100.00;99986.69;4873230;28;45918;-84
2022/10/01 01:26:44;;;;;;;;;3.00;3.00;;;;;13.74;100.00;99980.47;4874272;28;45254;-84
2022/10/01 01:29:19;;;;;;;;;2.00;2.00;;;;;13.79;100.00;99968.84;4869915;29;45402;-85
2022/10/01 01:31:46;;;;;;;;;1.00;1.00;;;;;13.79;100.00;99958.16;4869625;29;46706;-84
2022/10/01 01:34:18;;;;;;;;;2.33;2.33;;;;;13.76;100.00;99952.81;4869405;29;44809;-84
2022/10/01 01:36:48;;;;;;;;;1.00;1.00;;;;;13.83;100.00;99953.63;4883963;29;45368;-84
2022/10/01 01:39:17;;;;;;;;;1.67;1.33;;;;;13.82;100.00;99934.97;4870080;29;45808;-84
2022/10/01 01:41:55;;;;;;;;;1.00;1.00;;;;;13.83;100.00;99934.91;4870947;29;45551;-84
2022/10/01 01:44:26;;;;;;;;;1.33;1.33;;;;;13.92;100.00;99949.97;4873444;28;45553;-85
2022/10/01 01:46:57;;;;;;;;;0.00;0.00;;;;;13.96;100.00;99941.91;4868774;28;45679;-84
2022/10/01 01:49:24;;;;;;;;;2.00;2.00;;;;;14.07;100.00;99946.22;4873872;28;45295;-84
2022/10/01 01:52:04;;;;;;;;;1.67;1.67;;;;;14.10;100.00;99928.34;4871473;28;47093;-84
2022/10/01 01:54:30;;;;;;;;;0.00;0.00;;;;;14.12;100.00;99931.00;4858298;28;45222;-85
2022/10/01 01:56:57;;;;;;;;;1.00;1.00;;;;;14.19;100.00;99938.03;4873918;28;45399;-84
2022/10/01 01:59:25;;;;;;;;;1.00;1.00;;;;;14.23;100.00;99944.22;4866958;29;45379;-84
2022/10/01 02:01:50;;;;;;;;;2.00;1.00;;;;;14.30;100.00;99929.84;4868351;29;45757;-85
2022/10/01 02:04:24;;;;;;;;;1.00;1.00;;;;;14.36;100.00;99924.41;4866477;29;45347;-84
2022/10/01 02:07:24;;;;;;;;;1.00;1.00;;;;;14.39;100.00;99935.06;4868277;29;44840;-85
2022/10/01 02:10:21;;;;;;;;;1.00;1.00;;;;;14.42;100.00;99932.34;4852095;29;45067;-85
2022/10/01 02:13:00;;;;;;;;;1.25;1.00;;;;;14.46;100.00;99922.47;4886487;29;47101;-83
2022/10/01 02:15:47;;;;;;;;;1.00;1.00;;;;;14.44;100.00;99911.81;4887922;28;45393;-83
2022/10/01 02:18:21;;;;;;;;;0.00;0.00;;;;;14.55;100.00;99920.56;4870647;28;44832;-84
2022/10/01 02:21:02;;;;;;;;;2.00;1.00;;;;;14.55;100.00;99911.66;4872565;28;45304;-84
2022/10/01 02:23:40;;;;;;;;;0.00;0.00;;;;;14.60;100.00;99924.09;4871890;28;45430;-84
2022/10/01 02:26:16;;;;;;;;;0.00;0.00;;;;;14.56;100.00;99898.28;4870609;28;45072;-84
2022/10/01 02:28:45;;;;;;;;;0.00;0.00;;;;;14.68;100.00;99909.69;4871904;28;45379;-84
2022/10/01 02:31:13;;;;;;;;;1.00;1.00;;;;;14.65;100.00;99905.28;4874664;28;45412;-84
2022/10/01 02:33:41;;;;;;;;;0.00;0.00;;;;;14.69;100.00;99923.06;4874983;28;46989;-84
2022/10/01 02:36:10;;;;;;;;;1.00;1.00;;;;;14.65;100.00;99905.28;4875065;28;45491;-84
2022/10/01 02:38:39;;;;;;;;;1.25;1.25;;;;;14.70;100.00;99897.16;4876716;29;45497;-85
2022/10/01 02:41:10;;;;;;;;;1.67;1.67;;;;;14.77;100.00;99890.81;4893136;28;45278;-84
2022/10/01 02:43:50;;;;;;;;;2.33;1.00;;;;;14.82;100.00;99899.63;4885604;28;46980;-84
2022/10/01 02:46:40;;;;;;;;;1.67;0.67;;;;;14.80;100.00;99904.13;4876907;28;45469;-84
2022/10/01 02:49:05;;;;;;;;;0.00;0.00;;;;;14.84;100.00;99889.78;4881766;29;45476;-84
2022/10/01 02:51:54;;;;;;;;;0.67;0.67;;;;;14.88;100.00;99886.16;4874412;28;45386;-84
2022/10/01 02:54:44;;;;;;;;;0.00;0.00;;;;;14.91;100.00;99886.09;4822008;29;47275;-84
2022/10/01 02:57:21;;;;;;;;;0.00;0.00;;;;;14.92;100.00;99877.16;4856655;28;45419;-84
2022/10/01 02:59:48;;;;;;;;;1.33;1.00;;;;;14.93;100.00;99860.19;4857701;28;45528;-84
2022/10/01 03:02:14;;;;;;;;;1.00;1.00;;;;;14.92;100.00;99861.09;4841677;29;45041;-84
2022/10/01 03:04:41;;;;;;;;;0.00;0.00;;;;;14.95;100.00;99852.13;4840516;29;45415;-84
2022/10/01 03:07:06;;;;;;;;;0.00;0.00;;;;;14.94;100.00;99859.25;4841709;29;45393;-84
2022/10/01 03:09:33;;;;;;;;;0.00;0.00;;;;;14.95;100.00;99861.03;4856270;28;44845;-84
2022/10/01 03:12:00;;;;;;;;;0.00;0.00;;;;;15.03;100.00;99862.69;4843663;29;44959;-84
2022/10/01 03:14:26;;;;;;;;;0.00;0.00;;;;;14.98;100.00;99852.94;4837996;29;47022;-85
2022/10/01 03:16:51;;;;;;;;;0.00;0.00;;;;;15.05;100.00;99869.81;4854360;29;45604;-85
2022/10/01 03:19:17;;;;;;;;;0.00;0.00;;;;;15.03;100.00;99862.69;4853106;29;45840;-83
2022/10/01 03:21:42;;;;;;;;;0.75;0.00;;;;;15.00;100.00;99858.28;4853582;29;45392;-83
2022/10/01 03:24:08;;;;;;;;;0.00;0.00;;;;;15.09;100.00;99862.56;4837903;29;47574;-82
2022/10/01 03:26:34;;;;;;;;;0.00;0.00;;;;;15.05;100.00;99844.78;4856566;28;45365;-83
2022/10/01 03:29:00;;;;;;;;;0.75;0.75;;;;;15.12;100.00;99857.16;4857166;28;45447;-84
2022/10/01 03:31:25;;;;;;;;;0.00;0.00;;;;;15.15;100.00;99862.50;4868006;28;46554;-84
2022/10/01 03:33:51;;;;;;;;;0.00;0.00;;;;;15.13;100.00;99869.66;4873802;28;47149;-84
2022/10/01 03:36:16;;;;;;;;;0.00;0.00;;;;;15.13;100.00;99865.19;4879505;28;45371;-84
2022/10/01 03:38:42;;;;;;;;;0.00;0.00;;;;;15.12;100.00;99862.53;4877480;28;45397;-84
2022/10/01 03:41:07;;;;;;;;;0.00;0.00;;;;;15.20;100.00;99857.91;4871814;29;45411;-84
2022/10/01 03:43:33;;;;;;;;;0.00;0.00;;;;;15.22;100.00;99869.47;4870897;29;48277;-83
2022/10/01 03:46:00;;;;;;;;;0.00;0.00;;;;;15.21;100.00;99851.66;4872622;28;45487;-83
2022/10/01 03:48:26;;;;;;;;;0.00;0.00;;;;;15.20;100.00;99860.59;4874032;29;45500;-84
2022/10/01 03:50:53;;;;;;;;;0.00;0.00;;;;;15.16;100.00;99853.53;4871757;29;45634;-83
2022/10/01 03:53:19;;;;;;;;;0.00;0.00;;;;;15.14;100.00;99864.25;4882478;29;46814;-83
2022/10/01 03:55:52;;;;;;;;;0.00;0.00;;;;;15.09;100.00;99886.66;4871269;29;44893;-83
2022/10/01 03:58:17;;;;;;;;;0.00;0.00;;;;;15.11;100.00;99871.50;4876071;28;44837;-85
2022/10/01 04:00:45;;;;;;;;;0.00;0.00;;;;;15.10;100.00;99885.78;4876551;28;45489;-85
2022/10/01 04:03:12;;;;;;;;;0.00;0.00;;;;;15.05;100.00;99883.19;4871243;28;47489;-85
2022/10/01 04:05:37;;;;;;;;;0.75;0.00;;;;;15.13;100.00;99902.69;4876511;29;45409;-84
2022/10/01 04:08:03;;;;;;;;;0.00;0.00;;;;;15.13;100.00;99900.00;4875739;28;44882;-84
2022/10/01 04:10:28;;;;;;;;;0.00;0.00;;;;;15.18;100.00;99907.94;4871868;29;44942;-84
2022/10/01 04:12:54;;;;;;;;;0.00;0.00;;;;;15.28;100.00;99922.06;4886194;29;46669;-84
2022/10/01 04:15:21;;;;;;;;;0.00;0.00;;;;;15.32;100.00;99924.66;4871867;29;45315;-84
2022/10/01 04:17:47;;;;;;;;;0.00;0.00;;;;;15.35;100.00;99924.59;4871676;29;45425;-84
2022/10/01 04:20:12;;;;;;;;;0.00;0.00;;;;;15.42;100.00;99924.47;4854326;29;45830;-85
2022/10/01 04:22:41;;;;;;;;;0.00;0.00;;;;;15.37;100.00;99930.81;4865979;29;47889;-85
2022/10/01 04:25:10;;;;;;;;;0.00;0.00;;;;;15.40;100.00;99933.41;4875718;28;45419;-84
2022/10/01 04:27:37;;;;;;;;;0.00;0.00;;;;;15.40;100.00;99941.47;4877165;28;45385;-84
2022/10/01 04:30:05;;;;;;;;;1.00;0.00;;;;;15.40;100.00;99946.81;4875751;28;45344;-84
2022/10/01 04:32:31;;;;;;;;;0.00;0.00;;;;;15.42;100.00;99938.75;4888866;28;47095;-84
2022/10/01 04:34:56;;;;;;;;;0.00;0.00;;;;;15.44;100.00;99942.28;4889182;28;45346;-84
2022/10/01 04:37:26;;;;;;;;;0.00;0.00;;;;;15.48;100.00;99945.81;4889368;28;45483;-84
2022/10/01 04:39:52;;;;;;;;;0.00;0.00;;;;;15.46;100.00;99943.16;4876237;28;44906;-84
2022/10/01 04:42:18;;;;;;;;;0.00;0.00;;;;;15.50;100.00;99939.50;4869644;29;45518;-84
2022/10/01 04:44:43;;;;;;;;;0.00;0.00;;;;;15.55;100.00;99955.47;4871065;29;44857;-84
2022/10/01 04:47:08;;;;;;;;;0.00;0.00;;;;;15.64;100.00;99973.22;4882379;29;45439;-84
2022/10/01 04:49:34;;;;;;;;;0.25;0.00;;;;;15.67;100.00;99976.69;4872313;29;45537;-84
2022/10/01 04:52:00;;;;;;;;;0.00;0.00;;;;;15.68;100.00;99970.44;4871207;29;45851;-84
2022/10/01 04:54:26;;;;;;;;;0.00;0.00;;;;;15.79;100.00;99979.19;4884554;29;45357;-83
2022/10/01 04:56:51;;;;;;;;;0.00;0.00;;;;;15.84;100.00;99986.25;4876102;28;45244;-84
2022/10/01 04:59:18;;;;;;;;;0.00;0.00;;;;;15.88;100.00;99990.66;4893057;28;45237;-84
2022/10/01 05:01:44;;;;;;;;;0.00;0.00;;;;;15.86;100.00;99985.31;4892635;29;46059;-84
2022/10/01 05:04:09;;;;;;;;;0.00;0.00;;;;;15.87;100.00;99978.13;4876155;28;44797;-85
2022/10/01 05:06:35;;;;;;;;;0.00;0.00;;;;;15.89;100.00;99987.03;4875455;28;45421;-84
2022/10/01 05:09:00;;;;;;;;;0.00;0.00;;;;;15.92;100.00;99989.66;4875379;28;45570;-84
2022/10/01 05:11:26;;;;;;;;;0.00;0.00;;;;;15.93;100.00;99991.44;4871559;29;47172;-84
2022/10/01 05:13:53;;;;;;;;;0.00;0.00;;;;;15.91;100.00;99982.53;4886616;29;44935;-84
2022/10/01 05:16:18;;;;;;;;;0.00;0.00;;;;;15.88;100.00;99996.00;4888289;29;44894;-84
2022/10/01 05:18:43;;;;;;;;;0.50;0.00;;;;;15.88;100.00;100002.25;4888835;29;45463;-84
2022/10/01 05:21:10;;;;;;;;;0.00;0.00;;;;;15.91;100.00;100001.28;4887257;29;45532;-84
2022/10/01 05:23:36;;;;;;;;;0.00;0.00;;;;;15.93;100.00;100007.50;4871550;29;45560;-84
2022/10/01 05:26:04;;;;;;;;;0.00;0.00;;;;;15.88;100.00;100004.94;4888700;29;45359;-84
2022/10/01 05:28:34;;;;;;;;;0.00;0.00;;;;;15.92;100.00;100014.69;4878147;28;45304;-84
2022/10/01 05:31:03;;;;;;;;;0.00;0.00;;;;;15.89;100.00;100013.84;4892005;28;46765;-84
2022/10/01 05:33:30;;;;;;;;;0.00;0.00;;;;;15.86;100.00;100014.81;4894500;28;45435;-84
2022/10/01 05:35:56;;;;;;;;;1.00;0.00;;;;;15.89;100.00;100022.78;4877726;28;45473;-84
2022/10/01 05:38:22;;;;;;;;;1.00;0.00;;;;;15.90;100.00;100026.38;4876383;28;44853;-82
2022/10/01 05:40:47;;;;;;;;;0.00;0.00;;;;;15.95;100.00;100029.81;4892465;28;45497;-83
2022/10/01 05:43:13;;;;;;;;;0.00;0.00;;;;;15.94;100.00;100033.44;4887983;29;45475;-84
2022/10/01 05:45:39;;;;;;;;;1.50;1.50;;;;;15.94;100.00;100049.53;4887758;29;45165;-84
2022/10/01 05:48:07;;;;;;;;;0.00;0.00;;;;;15.95;100.00;100044.09;4890186;29;45314;-84
2022/10/01 05:50:38;;;;;;;;;0.00;0.00;;;;;15.90;100.00;100040.66;4890530;29;45185;-85
2022/10/01 05:53:03;;;;;;;;;0.00;0.00;;;;;15.97;100.00;100054.81;4872555;29;45419;-85
2022/10/01 05:55:33;;;;;;;;;0.75;0.75;;;;;16.04;100.00;100064.53;4885979;29;44866;-85
2022/10/01 05:58:09;;;;;;;;;0.00;0.00;;;;;16.00;100.00;100060.13;4877721;28;45611;-84
2022/10/01 06:00:35;;;;;;;;;0.00;0.00;;;;;15.89;100.00;100048.72;4877038;29;47245;-84
2022/10/01 06:03:14;;;;;;;;;0.00;0.00;;;;;16.00;100.00;100068.19;4891847;28;45585;-85
2022/10/01 06:05:39;;;;;;;;;0.00;0.00;;;;;15.99;100.00;100066.41;4876610;28;45418;-84
2022/10/01 06:08:08;;;;;;;;;1.00;0.00;;;;;16.07;100.00;100080.53;4883160;28;45430;-84
2022/10/01 06:10:35;;;;;;;;;0.00;0.00;;;;;16.08;100.00;100090.38;4886354;29;45409;-84
2022/10/01 06:13:04;;;;;;;;;0.00;0.00;;;;;16.11;100.00;100098.34;4885883;29;45596;-84
2022/10/01 06:15:33;;;;;;;;;0.75;0.00;;;;;16.10;100.00;100098.41;4888465;29;45331;-85
2022/10/01 06:18:16;;;;;;;;;0.00;0.00;;;;;16.10;100.00;100101.97;4870886;29;45389;-85
2022/10/01 06:20:42;;;;;;;;;0.00;0.00;;;;;16.18;100.00;100110.75;4887058;29;45284;-85
2022/10/01 06:23:11;;;;;;;;;1.75;1.75;;;;;16.19;100.00;100122.34;4887194;29;44832;-86
2022/10/01 06:25:40;;;;;;;;;0.00;0.00;;;;;16.16;100.00;100107.22;4887963;29;45707;-84
2022/10/01 06:28:08;;;;;;;;;0.50;0.50;;;;;16.20;100.00;100119.66;4888868;29;45409;-84
2022/10/01 06:30:36;;;;;;;;;0.00;0.00;;;;;16.22;100.00;100111.56;4890994;28;46287;-84
2022/10/01 06:33:11;;;;;;;;;0.00;0.00;;;;;16.19;100.00;100112.50;4873878;28;44794;-84
2022/10/01 06:35:46;;;;;;;;;0.00;0.00;;;;;16.20;100.00;100108.91;4874418;28;45506;-85
2022/10/01 06:38:12;;;;;;;;;0.00;0.00;;;;;16.29;100.00;100129.31;4874688;28;45459;-84
2022/10/01 06:40:39;;;;;;;;;0.00;0.00;;;;;16.30;100.00;100140.91;4885037;28;45580;-84
2022/10/01 06:43:07;;;;;;;;;0.75;0.00;;;;;16.27;100.00;100136.50;4871248;29;45431;-85
2022/10/01 06:45:42;;;;;;;;;1.25;1.00;;;;;16.30;100.00;100127.50;4871855;29;45396;-84
2022/10/01 06:48:13;;;;;;;;;0.00;0.00;;;;;16.33;100.00;100128.34;4872137;29;45477;-83
2022/10/01 06:50:39;;;;;;;;;1.00;1.00;;;;;16.37;100.00;100138.09;4871552;29;45696;-84
2022/10/01 06:53:05;;;;;;;;;1.00;0.00;;;;;16.41;100.00;100138.91;4885380;29;44944;-83
2022/10/01 06:55:33;;;;;;;;;0.33;0.33;;;;;16.42;100.00;100154.13;4870102;29;45377;-84
2022/10/01 06:58:01;;;;;;;;;1.00;1.00;;;;;16.41;100.00;100138.91;4874469;28;45404;-84
2022/10/01 07:00:29;;;;;;;;;0.00;0.00;;;;;16.44;100.00;100137.97;4873554;28;46705;-84
2022/10/01 07:02:55;;;;;;;;;0.25;0.25;;;;;16.46;100.00;100145.09;4874155;29;45442;-85
2022/10/01 07:05:22;;;;;;;;;0.00;0.00;;;;;16.50;100.00;100149.50;4891457;28;45403;-84
2022/10/01 07:07:47;;;;;;;;;1.00;1.00;;;;;16.54;100.00;100153.88;4890886;28;45430;-84
2022/10/01 07:10:14;;;;;;;;;0.50;0.50;;;;;16.54;100.00;100151.19;4905718;28;47420;-85
2022/10/01 07:12:40;;;;;;;;;2.00;2.00;;;;;16.58;100.00;100169.00;4890936;28;45748;-83
2022/10/01 07:15:08;;;;;;;;;2.25;1.00;;;;;16.67;100.00;100177.81;4889137;28;45557;-85
2022/10/01 07:17:41;;;;;;;;;0.00;0.00;;;;;16.68;100.00;100188.47;4872911;28;45354;-84
2022/10/01 07:20:07;;;;;;;;;0.00;0.00;;;;;16.66;100.00;100176.88;4891379;29;45460;-84
2022/10/01 07:22:32;;;;;;;;;1.25;0.00;;;;;16.76;100.00;100196.38;4892339;28;45453;-84
2022/10/01 07:24:59;;;;;;;;;2.00;1.00;;;;;16.79;100.00;100190.97;4877113;28;45201;-84
2022/10/01 07:27:25;;;;;;;;;1.75;1.00;;;;;16.73;100.00;100180.34;4894712;28;45397;-85
2022/10/01 07:29:51;;;;;;;;;1.00;1.00;;;;;16.85;100.00;100192.69;4892636;28;48088;-84
2022/10/01 07:32:17;;;;;;;;;1.00;1.00;;;;;16.91;100.00;100214.94;4893557;29;45888;-84
2022/10/01 07:34:43;;;;;;;;;2.75;1.00;;;;;16.94;100.00;100214.84;4894493;28;45327;-85
2022/10/01 07:37:09;;;;;;;;;1.00;1.00;;;;;16.94;100.00;100219.34;4876892;28;45400;-84
2022/10/01 07:39:35;;;;;;;;;0.00;0.00;;;;;16.96;100.00;100213.00;4876313;28;45454;-84
2022/10/01 07:42:01;;;;;;;;;2.50;1.00;;;;;17.05;100.00;100221.78;4890536;28;45893;-84
2022/10/01 07:44:28;;;;;;;;;2.50;1.00;;;;;17.07;100.00;100214.63;4891697;28;45485;-84
2022/10/01 07:46:56;;;;;;;;;2.00;1.75;;;;;17.07;100.00;100211.94;4891989;28;45462;-84
2022/10/01 07:49:25;;;;;;;;;0.50;0.50;;;;;17.19;100.00;100227.78;4894188;28;45057;-84
2022/10/01 07:51:53;;;;;;;;;2.00;2.00;;;;;17.24;100.00;100228.56;4894360;28;45387;-84
2022/10/01 07:54:20;;;;;;;;;1.00;1.00;;;;;17.20;100.00;100221.47;4892671;28;45387;-84
2022/10/01 07:56:47;;;;;;;;;1.25;1.00;;;;;17.28;100.00;100246.38;4890776;29;45294;-85
2022/10/01 07:59:13;;;;;;;;;3.00;1.00;;;;;17.37;100.00;100251.59;4888027;29;45521;-85
2022/10/01 08:01:38;;;;;;;;;1.50;0.75;;;;;17.46;100.00;100249.59;4873604;29;44831;-83
2022/10/01 08:05:16;;;;;;;;;1.00;1.00;;;;;17.50;100.00;100251.31;4879367;29;45393;-84
2022/10/01 08:06:52;;;;;;;;;2.00;2.00;;;;;17.49;100.00;100254.91;4890101;29;44901;-84
2022/10/01 08:09:18;;;;;;;;;1.25;1.25;;;;;17.51;100.00;100247.69;4888615;29;48077;-84
2022/10/01 08:11:44;;;;;;;;;2.00;2.00;;;;;17.58;100.00;100252.91;4907763;29;45513;-83
2022/10/01 08:14:11;;;;;;;;;1.00;1.00;;;;;17.64;100.00;100257.25;4893736;28;44809;-84
2022/10/01 08:16:38;;;;;;;;;1.25;1.25;;;;;17.69;100.00;100265.22;4893573;28;44818;-84
2022/10/01 08:19:05;;;;;;;;;4.00;2.50;;;;;17.73;100.00;100265.13;4894494;28;46728;-85
2022/10/01 08:21:34;;;;;;;;;2.50;2.00;;;;;17.82;100.00;100279.28;4896305;28;44853;-83
2022/10/01 08:24:00;;;;;;;;;3.00;2.25;;;;;17.86;100.00;100283.69;4879533;29;45394;-84
2022/10/01 08:26:25;;;;;;;;;2.00;2.00;;;;;17.75;100.00;100257.91;4895342;28;45334;-83
2022/10/01 08:28:50;;;;;;;;;4.00;2.00;;;;;17.90;100.00;100288.09;4892688;29;46545;-84
2022/10/01 08:31:16;;;;;;;;;2.75;2.25;;;;;17.85;100.00;100284.59;4891712;28;45340;-84
2022/10/01 08:33:41;;;;;;;;;2.00;2.00;;;;;17.88;100.00;100277.34;4873833;29;45267;-84
2022/10/01 08:36:07;;;;;;;;;5.00;2.00;;;;;17.97;100.00;100295.97;4891828;29;45274;-84
2022/10/01 08:38:33;;;;;;;;;2.25;2.25;;;;;17.92;100.00;100287.13;4906203;29;45253;-85
2022/10/01 08:41:22;;;;;;;;;3.75;2.25;;;;;18.01;100.00;100301.28;4875292;29;45778;-84
2022/10/01 08:43:50;;;;;;;;;2.00;2.00;;;;;18.13;100.00;100309.94;4890728;29;45911;-84
2022/10/01 08:46:19;;;;;;;;;2.75;2.75;;;;;18.18;100.00;100304.47;4890243;29;45059;-84
2022/10/01 08:48:59;;;;;;;;;2.00;2.00;;;;;18.14;100.00;100314.41;4891842;29;45428;-83
2022/10/01 08:51:38;;;;;;;;;2.00;2.00;;;;;18.13;100.00;100327.91;4890568;29;45424;-85
2022/10/01 08:54:06;;;;;;;;;2.00;2.00;;;;;18.14;100.00;100330.56;4891047;29;45335;-84
2022/10/01 08:56:45;;;;;;;;;1.25;1.25;;;;;18.17;100.00;100334.97;4891859;29;45327;-84
2022/10/01 08:59:31;;;;;;;;;4.75;4.75;;;;;18.28;100.00;100340.09;4879862;28;47075;-84
2022/10/01 09:01:58;;;;;;;;;4.00;2.00;;;;;18.29;100.00;100329.28;4890726;28;45348;-84
2022/10/01 09:04:24;;;;;;;;;2.75;2.00;;;;;18.40;100.00;100342.50;4891282;29;45390;-84
2022/10/01 09:07:00;;;;;;;;;2.00;2.00;;;;;18.40;100.00;100342.50;4896268;29;44980;-85
2022/10/01 09:09:48;;;;;;;;;5.25;4.75;;;;;18.47;100.00;100351.31;4879320;28;46986;-85
2022/10/01 09:12:42;;;;;;;;;6.75;4.50;;;;;18.54;100.00;100350.22;4892923;28;45423;-84
2022/10/01 09:15:32;;;;;;;;;3.00;2.25;;;;;18.57;100.00;100342.97;4890268;29;45483;-84
2022/10/01 09:18:14;;;;;;;;;3.25;2.25;;;;;18.55;100.00;100336.72;4874701;29;45475;-85
2022/10/01 09:20:51;;;;;;;;;4.25;3.75;;;;;18.63;100.00;100355.38;4891186;29;45293;-85
2022/10/01 09:23:19;;;;;;;;;1.75;1.75;;;;;18.65;100.00;100356.25;4890936;29;45376;-85
2022/10/01 09:25:51;;;;;;;;;5.75;3.25;;;;;18.65;100.00;100352.66;4890924;29;44907;-85
2022/10/01 09:28:23;;;;;;;;;4.00;2.00;;;;;18.74;100.00;100360.50;4874443;29;45358;-85
2022/10/01 09:31:12;;;;;;;;;3.00;3.00;;;;;18.71;100.00;100356.09;4874692;29;45400;-84
2022/10/01 09:34:09;;;;;;;;;3.00;3.00;;;;;18.81;100.00;100370.25;4875210;29;45404;-85
2022/10/01 09:37:03;;;;;;;;;5.25;3.50;;;;;18.79;100.00;100372.09;4889713;29;45399;-85
2022/10/01 09:39:45;;;;;;;;;5.25;2.00;;;;;18.82;100.00;100371.13;4874471;29;45487;-85
2022/10/01 09:42:11;;;;;;;;;4.25;3.25;;;;;18.83;100.00;100376.47;4890197;29;46483;-84
2022/10/01 09:44:36;;;;;;;;;4.00;4.00;;;;;18.84;100.00;100378.22;4891467;29;45407;-85
2022/10/01 09:47:02;;;;;;;;;3.00;3.00;;;;;18.93;100.00;100386.09;4885649;29;44904;-84
2022/10/01 09:49:48;;;;;;;;;3.50;3.50;;;;;18.94;100.00;100387.84;4892512;29;45485;-84
2022/10/01 09:52:27;;;;;;;;;3.75;1.75;;;;;18.95;100.00;100378.84;4891959;29;45232;-83
2022/10/01 09:55:21;;;;;;;;;0.75;0.75;;;;;19.08;100.00;100400.06;4891116;29;45407;-84
2022/10/01 09:58:03;;;;;;;;;2.50;2.50;;;;;19.07;100.00;100392.94;4881238;29;45807;-84
2022/10/01 10:00:29;;;;;;;;;1.50;1.00;;;;;19.04;100.00;100406.47;4873891;29;45388;-85
2022/10/01 10:02:55;;;;;;;;;3.25;2.25;;;;;18.98;100.00;100405.69;4874066;29;48086;-84
2022/10/01 10:05:27;;;;;;;;;2.00;2.00;;;;;18.98;100.00;100410.22;4889825;29;45464;-84
2022/10/01 10:08:12;;;;;;;;;5.00;3.00;;;;;18.97;100.00;100408.47;4891117;29;45776;-83
2022/10/01 10:10:48;;;;;;;;;2.00;2.00;;;;;19.08;100.00;100408.16;4888000;29;45507;-83
2022/10/01 10:13:23;;;;;;;;;2.00;2.00;;;;;19.27;100.00;100412.16;4891682;29;46236;-83
2022/10/01 10:15:52;;;;;;;;;3.75;2.75;;;;;19.38;100.00;100412.72;4873895;29;45513;-84
2022/10/01 10:18:34;;;;;;;;;5.25;3.00;;;;;19.52;100.00;100406.94;4872931;29;45332;-85
2022/10/01 10:21:06;;;;;;;;;3.25;3.00;;;;;19.62;100.00;100406.69;4872904;29;44823;-84
2022/10/01 10:23:33;;;;;;;;;4.75;2.50;;;;;19.77;100.00;100414.38;4872444;29;46943;-85
2022/10/01 10:26:04;;;;;;;;;4.00;2.00;;;;;19.94;100.00;100421.97;4872969;29;45209;-84
2022/10/01 10:28:40;;;;;;;;;2.67;2.67;;;;;19.93;100.00;100399.47;4890881;29;45449;-85
2022/10/01 10:31:14;;;;;;;;;3.50;3.00;;;;;20.09;100.00;100423.31;4873966;29;44974;-85
2022/10/01 10:34:10;;;;;;;;;2.00;2.00;;;;;20.09;100.00;100416.09;4874382;29;47053;-85
2022/10/01 10:36:36;;;;;;;;;4.67;3.00;;;;;20.03;100.00;100423.50;4890927;29;45622;-85
2022/10/01 10:39:05;;;;;;;;;4.67;4.67;;;;;20.24;100.00;100439.06;4891297;29;45176;-85
2022/10/01 10:42:24;;;;;;;;;3.00;2.00;;;;;20.37;100.00;100436.88;4874647;29;45380;-85
2022/10/01 10:44:53;;;;;;;;;4.50;3.00;;;;;20.43;100.00;100441.19;4890403;29;45618;-84
2022/10/01 10:47:23;;;;;;;;;2.75;1.50;;;;;20.42;98.89;100437.63;4873663;29;45290;-84
2022/10/01 10:49:59;;;;;;;;;3.00;1.75;;;;;20.43;100.00;100433.09;4875234;29;45455;-84
2022/10/01 10:52:36;;;;;;;;;3.25;2.75;;;;;20.45;100.00;100433.94;4875296;29;45416;-84
2022/10/01 10:55:20;;;;;;;;;4.50;3.00;;;;;20.61;96.70;100437.94;4890866;29;45315;-85
2022/10/01 10:57:45;;;;;;;;;3.33;3.00;;;;;20.64;95.08;100440.53;4874459;29;45457;-84
2022/10/01 11:00:20;;;;;;;;;3.67;3.67;;;;;20.69;98.43;100446.69;4887635;29;45377;-83
2022/10/01 11:02:49;;;;;;;;;3.25;3.00;;;;;20.69;95.95;100459.31;4891278;29;45347;-83
2022/10/01 11:05:20;;;;;;;;;2.00;1.50;;;;;20.58;93.97;100465.94;4905776;29;47549;-83
2022/10/01 11:07:47;;;;;;;;;3.00;3.00;;;;;20.46;94.96;100465.41;4897386;29;45356;-84
2022/10/01 11:10:47;;;;;;;;;1.75;1.75;;;;;20.43;91.28;100469.09;4892974;29;45407;-83
2022/10/01 11:13:34;;;;;;;;;2.50;2.00;;;;;20.35;93.30;100471.13;4892095;29;45392;-83
2022/10/01 11:15:59;;;;;;;;;5.25;3.00;;;;;20.20;94.05;100475.19;4891376;29;45385;-84
2022/10/01 11:18:47;;;;;;;;;4.50;4.00;;;;;20.19;93.78;100471.59;4891019;29;45336;-84
2022/10/01 11:21:34;;;;;;;;;2.00;2.00;;;;;20.28;93.74;100467.75;4895235;28;45438;-84
2022/10/01 11:24:52;;;;;;;;;3.75;3.75;;;;;20.30;93.38;100475.78;4879385;28;45384;-84
2022/10/01 11:27:21;;;;;;;;;0.50;0.50;;;;;20.37;94.43;100480.06;4894713;28;45591;-84
2022/10/01 11:30:11;;;;;;;;;2.25;2.25;;;;;20.47;92.54;100486.09;4879027;28;45317;-84
2022/10/01 11:32:44;;;;;;;;;4.00;2.00;;;;;20.37;89.02;100477.38;4879420;28;44793;-85
2022/10/01 11:35:54;;;;;;;;;5.75;4.25;;;;;20.42;90.69;100469.13;4878509;28;45459;-85
2022/10/01 11:38:40;;;;;;;;;3.25;3.25;;;;;20.57;91.07;100480.34;4875271;29;48709;-84
2022/10/01 11:41:17;;;;;;;;;1.00;1.00;;;;;20.72;91.48;100478.13;4880101;29;45104;-85
2022/10/01 11:43:53;;;;;;;;;2.00;2.00;;;;;20.82;89.06;100490.41;4892302;29;45449;-84
2022/10/01 11:46:37;;;;;;;;;2.00;2.00;;;;;20.75;88.60;100480.72;4875115;29;45451;-84